MS181 EgyptAir Hijack (29th of March, 2016)

Hijacked aircraft diverted and landed in Larnaca, Cyprus

Aircraft A320 Reg No. SU-GCB Age 15 years old
Model A320 Jet engines 2 First flight 08-07-03
Registered 31-10-03 Rollout 06-03 Delivered 31-10-03
Construction No. 2079 Line No. N/A Series 232
ADSHEX 010092 Airline name EgyptAir Owner N/A
Airfield based Cairo-International~ ~SU First tracked N/A

Flight history for SU-GCB

Route Flight No Date Playback
King Fahd Intl (DMM) - Borg El Arab Intl (HBE) MS686 2018-11-14 15:40:00
Borg El Arab Intl (HBE) - King Fahd Intl (DMM) MS685 2018-11-14 13:35:00
Kuwait Intl (KWI) - Borg El Arab Intl (HBE) MS619 2018-11-14 11:17:00
Borg El Arab Intl (HBE) - Kuwait Intl (KWI) MS618 2018-11-14 01:37:00
Cairo Intl (CAI) - Borg El Arab Intl (HBE) MS150 2018-11-13 21:44:00
Borg El Arab Intl (HBE) - Cairo Intl (CAI) MS181 2018-11-13 05:39:00
Cairo Intl (CAI) - Borg El Arab Intl (HBE) MS180 2018-11-13 05:32:00
Kastrup (CPH) - Cairo Intl (CAI) MS760 2018-11-12 18:21:00
???? N/A 2018-11-12 14:42:00
Cairo Intl (CAI) - Kastrup (CPH) MS759 2018-11-12 14:15:00
???? N/A 2018-11-12 08:38:00
Cairo Intl (CAI) - Sharm El Sheikh Intl (SSH) MS20 2018-11-12 03:56:00
Kastrup (CPH) - Cairo Intl (CAI) MS760 2018-11-10 18:06:00
Cairo Intl (CAI) - Kastrup (CPH) MS759 2018-11-10 12:57:00
Borg El Arab Intl (HBE) - Cairo Intl (CAI) MS181 2018-11-10 08:29:00
Cairo Intl (CAI) - Borg El Arab Intl (HBE) MS180 2018-11-10 05:52:00
Kastrup (CPH) - Cairo Intl (CAI) MS760 2018-11-09 17:58:00
Cairo Intl (CAI) - Kastrup (CPH) MS759 2018-11-09 13:56:00
Borg El Arab Intl (HBE) - Cairo Intl (CAI) MS181 2018-11-09 08:25:00
King Abdulaziz Intl (JED) - Cairo Intl (CAI) MS674 2018-11-09 05:50:00
Time Lat Lon Altitude Heading Speed Vertical Rate
2016-03-29 06:34:54 GMT 34.88560 33.63350 0 212 0 0
2016-03-29 06:32:47 GMT 34.88560 33.63350 0 212 0 0
We lost coverage of the aircraft here for a total of 49 minutes
2016-03-29 05:43:57 GMT 34.80711 33.53986 1,550 47 154 -832
2016-03-29 05:43:49 GMT 34.80400 33.53582 1,650 47 154 -832
2016-03-29 05:43:32 GMT 34.79598 33.52547 1,850 47 154 -832
2016-03-29 05:43:30 GMT 34.79445 33.52341 1,875 47 157 -512
We lost coverage of the aircraft here for a total of 9 minutes
2016-03-29 05:34:01 GMT 34.25995 33.13034 8,325 26 302 -1920
2016-03-29 05:33:47 GMT 34.24498 33.12159 8,725 25 302 -1984
2016-03-29 05:33:38 GMT 34.23363 33.11492 9,025 25 303 -1984
2016-03-29 05:33:26 GMT 34.21832 33.10604 9,425 25 304 -1920
2016-03-29 05:33:16 GMT 34.20603 33.09895 9,725 25 305 -1856
2016-03-29 05:33:07 GMT 34.19429 33.09219 10,025 25 306 -1856
2016-03-29 05:32:57 GMT 34.18135 33.08470 10,350 25 307 -1856
2016-03-29 05:32:46 GMT 34.16748 33.07664 10,675 25 307 -2048
2016-03-29 05:32:36 GMT 34.15426 33.06902 11,000 25 308 -1856
2016-03-29 05:32:25 GMT 34.13997 33.06078 11,350 25 309 -1792
2016-03-29 05:32:15 GMT 34.12688 33.05321 11,625 25 313 -1472
2016-03-29 05:32:04 GMT 34.11315 33.04522 11,900 25 315 -1472
2016-03-29 05:31:55 GMT 34.09961 33.03738 12,125 25 315 -1280
2016-03-29 05:31:44 GMT 34.08601 33.02959 12,350 25 314 -960
2016-03-29 05:31:33 GMT 34.07177 33.02141 12,500 25 317 -832
2016-03-29 05:31:23 GMT 34.05808 33.01351 12,650 25 318 -896
2016-03-29 05:31:12 GMT 34.04360 33.00516 12,800 25 320 -704
2016-03-29 05:31:01 GMT 34.02931 32.99698 12,925 25 321 -384
2016-03-29 05:30:50 GMT 34.01474 32.98857 12,975 25 321 0
2016-03-29 05:30:39 GMT 33.99994 32.98000 12,975 25 322 0
2016-03-29 05:30:29 GMT 33.98502 32.97143 13,000 25 322 0
2016-03-29 05:30:18 GMT 33.97136 32.96356 13,000 25 322 -64
2016-03-29 05:30:07 GMT 33.95650 32.95506 13,050 25 322 -576
2016-03-29 05:29:57 GMT 33.94322 32.94744 13,175 25 323 -960
2016-03-29 05:29:47 GMT 33.92894 32.93925 13,350 25 323 -960
2016-03-29 05:29:36 GMT 33.91386 32.93055 13,550 25 326 -960
2016-03-29 05:29:26 GMT 33.90093 32.92311 13,700 25 327 -960
2016-03-29 05:29:12 GMT 33.88014 32.91112 13,925 25 328 -896
2016-03-29 05:29:05 GMT 33.87201 32.90646 14,025 25 329 -832
2016-03-29 05:28:53 GMT 33.85595 32.89724 14,200 25 330 -896
2016-03-29 05:28:44 GMT 33.84264 32.88958 14,350 25 331 -960
2016-03-29 05:28:34 GMT 33.82764 32.88096 14,525 25 332 -1024
2016-03-29 05:28:21 GMT 33.81120 32.87154 14,725 25 332 -1024
2016-03-29 05:28:13 GMT 33.79871 32.86437 14,875 25 332 -960
2016-03-29 05:28:09 GMT 33.79285 32.86100 14,925 26.1 325.1 -960
2016-03-29 05:27:38 GMT 33.75156 32.83746 15,400 25.4 335.5 -960
2016-03-29 05:27:09 GMT 33.70798 32.81257 15,925 25.6 342.6 -960
2016-03-29 05:26:39 GMT 33.66565 32.78841 16,425 26.1 338.6 -1216
2016-03-29 05:26:09 GMT 33.62254 32.76386 17,150 26.1 338.6 -1472
2016-03-29 05:25:39 GMT 33.57841 32.73863 17,925 25.6 354.7 -1472
2016-03-29 05:25:08 GMT 33.53233 32.71251 18,625 25.4 359.6 -1344
2016-03-29 05:24:39 GMT 33.48839 32.68757 19,325 25.9 359.1 -1472
2016-03-29 05:24:09 GMT 33.43950 32.65983 20,075 25.3 374.9 -1280
2016-03-29 05:23:39 GMT 33.39425 32.63422 20,550 26 376.1 -448
2016-03-29 05:23:09 GMT 33.34644 32.60725 20,800 25.9 375.7 -512
2016-03-29 05:22:39 GMT 33.29728 32.57951 21,000 25.7 375.3 0
2016-03-29 05:22:09 GMT 33.24868 32.55210 20,975 25.5 390 0
2016-03-29 05:21:39 GMT 33.20082 32.52497 21,000 25.5 390 0
2016-03-29 05:21:04 GMT 33.14378 32.49272 20,975 25.4 394.1 0
2016-03-29 05:20:32 GMT 33.09087 32.46292 21,000 25.3 395.9 0
2016-03-29 05:20:01 GMT 33.04073 32.43467 20,975 25.8 392.2 0
2016-03-29 05:19:32 GMT 32.98984 32.40615 20,975 25.7 389.6 0
2016-03-29 05:17:32 GMT 32.79265 32.29566 20,975 25.5 390.9 0
2016-03-29 05:17:02 GMT 32.74429 32.26849 21,000 27.1 381.9 0
2016-03-29 05:16:32 GMT 32.69650 32.23597 21,000 33.9 389.1 0
2016-03-29 05:16:02 GMT 32.65068 32.20065 21,000 33.9 390.5 0
2016-03-29 05:15:32 GMT 32.60421 32.16444 21,000 33.4 403.6 0
2016-03-29 05:15:02 GMT 32.55649 32.12722 20,975 33.5 406.3 0
2016-03-29 05:14:32 GMT 32.50946 32.09057 21,025 33.3 408 -128
2016-03-29 05:14:02 GMT 32.46171 32.05385 20,975 33.4 428.8 64
2016-03-29 05:13:31 GMT 32.41054 32.01509 21,000 32.7 442.2 0
2016-03-29 05:13:00 GMT 32.35697 31.97436 21,000 32.9 441.9 0
2016-03-29 05:12:27 GMT 32.29875 31.92990 21,000 33 443.8 0
2016-03-29 05:12:02 GMT 32.25404 31.89583 21,000 32.8 444.9 0
2016-03-29 05:11:32 GMT 32.20330 31.85738 20,975 33.3 441.3 0
2016-03-29 05:11:02 GMT 32.15002 31.81696 21,000 33.3 440.4 0
2016-03-29 05:10:32 GMT 32.09795 31.77767 20,975 33.3 441.3 0
2016-03-29 05:10:02 GMT 32.04735 31.73922 21,000 32.9 445.5 0
2016-03-29 05:09:32 GMT 31.99372 31.69858 21,000 33.2 439.9 0
2016-03-29 05:09:02 GMT 31.94211 31.65974 21,000 33.2 439.9 0
2016-03-29 05:08:32 GMT 31.89019 31.62067 21,000 33.4 439.6 0
2016-03-29 05:08:01 GMT 31.83490 31.57888 21,000 33.5 442.4 0
2016-03-29 05:07:30 GMT 31.78191 31.53895 21,000 33.2 443.5 0
2016-03-29 05:07:01 GMT 31.73149 31.50121 20,900 32.5 454.1 704
We lost coverage of the aircraft here for a total of 7 minutes
2016-03-29 05:00:30 GMT 31.04797 31.29758 15,000 352 394 0
2016-03-29 05:00:27 GMT 31.04118 31.29870 15,000 352 392 0
2016-03-29 05:00:11 GMT 31.01333 31.30335 15,000 352 392 0
2016-03-29 04:59:05 GMT 30.89461 31.32294 15,000 352 391 0
2016-03-29 04:59:02 GMT 30.88943 31.32380 15,000 352 391 0
2016-03-29 04:58:11 GMT 30.79765 31.33899 15,000 353 389 0
2016-03-29 04:57:50 GMT 30.75893 31.34529 14,975 353 389 0
2016-03-29 04:56:26 GMT 30.60949 31.36954 14,975 353 395 0
2016-03-29 04:56:05 GMT 30.57127 31.37580 15,000 353 395 0
2016-03-29 04:55:44 GMT 30.53170 31.38223 15,000 353 393 0
2016-03-29 04:55:25 GMT 30.49681 31.38778 15,000 353 391 0
2016-03-29 04:55:00 GMT 30.45191 31.39497 15,000 352 393 0
2016-03-29 04:54:54 GMT 30.44060 31.39699 14,975 351 391 0
2016-03-29 04:54:33 GMT 30.40545 31.40513 15,000 348 389 0
2016-03-29 04:54:23 GMT 30.38725 31.40958 15,000 349 391 0
2016-03-29 04:54:12 GMT 30.36836 31.41336 15,000 355 395 0
2016-03-29 04:54:02 GMT 30.34815 31.41381 14,975 4 402 0
2016-03-29 04:53:51 GMT 30.32906 31.41046 15,000 14 409 0
2016-03-29 04:53:41 GMT 30.31046 31.40334 14,975 23 415 0
2016-03-29 04:53:31 GMT 30.29361 31.39311 15,000 33 422 0
2016-03-29 04:53:20 GMT 30.27676 31.37819 15,000 44 431 0
2016-03-29 04:53:11 GMT 30.26314 31.36091 15,000 53 438 0
2016-03-29 04:53:00 GMT 30.25168 31.33990 15,000 64 447 0
2016-03-29 04:52:49 GMT 30.24371 31.31669 15,000 74 454 0
2016-03-29 04:52:40 GMT 30.23945 31.29109 15,000 85 462 0
2016-03-29 04:52:29 GMT 30.23950 31.26596 15,000 96 469 64
2016-03-29 04:52:19 GMT 30.24373 31.24122 14,975 107 474 0
2016-03-29 04:52:08 GMT 30.25333 31.21507 14,975 119 477 0
2016-03-29 04:51:48 GMT 30.27855 31.17634 15,000 135 476 0
2016-03-29 04:51:16 GMT 30.32932 31.11850 14,975 135 473 0
2016-03-29 04:51:01 GMT 30.35257 31.09202 15,000 135 473 0

Making use of Plane Finder data

You are free to use the raw flight data, aircraft information and images provided in this report for your own purposes provided the data is correctly attributed to Plane Finder. We ask that you please credit Plane Finder and link to planefinder.net in close proximity to the content.

Optionally one of the following logos (no smaller then 150x24px) can be used and must link to planefinder.net

Embedding the Plane Finder map

You are welcome to embed the Plane Finder playback map on your website to offer visitors a more interactive experience. We suggest using the following HTML code:

<iframe src="//planefinder.net/data/report/MS181-HIJACK/map" width="800" height="600" seamless="seamless"></iframe>

Where our data comes from

Plane Finder has a global network of data feeds and antenna radars that receive data broadcast directly from aircraft. The primary technologies used are ADS-B and MLAT. We also show feeds from the FAA and a FLARM glider feed.

Click here to find out more about the Plane Finder network.

How we collect our data